createdAt,value
2018-06-10T00:00:27.609Z,0
2018-06-10T00:01:28.325Z,0
2018-06-10T00:02:29.633Z,0
2018-06-10T00:03:30.609Z,1
2018-06-10T00:04:31.606Z,0
2018-06-10T00:05:32.313Z,1
2018-06-10T00:06:33.316Z,0
2018-06-10T00:07:34.637Z,1
2018-06-10T00:08:35.589Z,0
2018-06-10T00:09:36.626Z,0
2018-06-10T00:10:37.465Z,0
2018-06-10T00:11:38.326Z,0
2018-06-10T00:12:39.599Z,0
2018-06-10T00:13:40.611Z,1
2018-06-10T00:14:41.610Z,0
2018-06-10T00:15:42.698Z,1
2018-06-10T00:16:43.300Z,0
2018-06-10T00:17:44.601Z,0
2018-06-10T00:18:45.599Z,0
2018-06-10T00:19:46.594Z,0
2018-06-10T00:20:47.745Z,1
2018-06-10T00:21:48.294Z,1
2018-06-10T00:22:49.583Z,0
2018-06-10T00:23:51.230Z,1
2018-06-10T00:24:51.579Z,1
2018-06-10T00:25:52.581Z,0
2018-06-10T00:26:53.581Z,0
2018-06-10T00:27:54.393Z,0
2018-06-10T00:28:55.300Z,1
2018-06-10T00:29:57.234Z,1
2018-06-10T00:30:57.309Z,0
2018-06-10T00:31:58.090Z,0
2018-06-10T00:33:00.239Z,0
2018-06-10T00:34:00.636Z,0
2018-06-10T00:35:00.994Z,0
2018-06-10T00:36:02.575Z,0
2018-06-10T00:37:03.578Z,0
2018-06-10T00:38:04.273Z,0
2018-06-10T00:39:05.564Z,0
2018-06-10T00:40:06.562Z,0
2018-06-10T00:41:07.592Z,0
2018-06-10T00:42:08.565Z,0
2018-06-10T00:43:09.564Z,1
2018-06-10T00:44:10.553Z,0
2018-06-10T00:45:11.567Z,1
2018-06-10T00:46:12.696Z,1
2018-06-10T00:47:13.553Z,0
2018-06-10T00:48:14.292Z,0
2018-06-10T00:49:15.606Z,0
2018-06-10T00:50:16.270Z,0
2018-06-10T00:51:17.567Z,0
2018-06-10T00:52:18.583Z,0
2018-06-10T00:53:19.319Z,1
2018-06-10T00:54:20.569Z,0
2018-06-10T00:55:21.556Z,0
2018-06-10T00:56:22.547Z,0
2018-06-10T00:57:23.258Z,0
2018-06-10T00:58:24.537Z,0
2018-06-10T00:59:24.976Z,0
2018-06-10T01:00:26.260Z,0
2018-06-10T01:01:27.398Z,1
2018-06-10T01:02:28.543Z,1
2018-06-10T01:03:29.553Z,0
2018-06-10T01:04:30.586Z,0
2018-06-10T01:05:31.248Z,1
2018-06-10T01:06:32.248Z,0
2018-06-10T01:07:33.533Z,1
2018-06-10T01:08:34.532Z,0
2018-06-10T01:09:35.551Z,0
2018-06-10T01:10:36.249Z,1
2018-06-10T01:11:37.638Z,0
2018-06-10T01:12:38.545Z,0
2018-06-10T01:13:39.246Z,0
2018-06-10T01:14:40.522Z,1
2018-06-10T01:15:41.558Z,1
2018-06-10T01:16:42.546Z,1
2018-06-10T01:17:43.523Z,0
2018-06-10T01:18:44.251Z,0
2018-06-10T01:19:45.227Z,0
2018-06-10T01:20:46.248Z,0
2018-06-10T01:21:47.532Z,0
2018-06-10T01:22:48.536Z,1
2018-06-10T01:23:48.933Z,0
2018-06-10T01:24:50.224Z,0
2018-06-10T01:25:51.522Z,0
2018-06-10T01:26:52.536Z,0
2018-06-10T01:27:53.513Z,0
2018-06-10T01:28:54.524Z,1
2018-06-10T01:29:55.518Z,1
2018-06-10T01:30:56.215Z,0
2018-06-10T01:31:57.512Z,1
2018-06-10T01:32:58.220Z,0
2018-06-10T01:33:59.217Z,1
2018-06-10T01:35:00.226Z,0
2018-06-10T01:36:01.214Z,0
2018-06-10T01:37:02.503Z,1
2018-06-10T01:38:02.928Z,0
2018-06-10T01:39:04.507Z,1
2018-06-10T01:40:05.207Z,0
2018-06-10T01:41:06.496Z,1
2018-06-10T01:42:07.495Z,0
2018-06-10T01:43:08.498Z,0
2018-06-10T01:44:09.200Z,0
2018-06-10T01:45:10.202Z,0
2018-06-10T01:46:11.511Z,0
2018-06-10T01:47:12.501Z,0
2018-06-10T01:48:13.211Z,1
2018-06-10T01:49:14.479Z,0
2018-06-10T01:50:15.493Z,0
2018-06-10T01:51:16.488Z,0
2018-06-10T01:52:17.638Z,0
2018-06-10T01:53:18.207Z,0
2018-06-10T01:54:19.498Z,0
2018-06-10T01:55:20.211Z,1
2018-06-10T01:56:21.191Z,0
2018-06-10T01:57:22.479Z,0
2018-06-10T01:58:22.910Z,0
2018-06-10T01:59:24.231Z,0
2018-06-10T02:00:25.222Z,0
2018-06-10T02:01:26.290Z,1
2018-06-10T02:02:27.178Z,1
2018-06-10T02:03:28.463Z,0
2018-06-10T02:04:29.480Z,0
2018-06-10T02:05:30.460Z,1
2018-06-10T02:06:31.471Z,0
2018-06-10T02:07:32.482Z,1
2018-06-10T02:08:33.470Z,0
2018-06-10T02:09:34.184Z,0
2018-06-10T02:10:35.465Z,0
2018-06-10T02:11:36.170Z,0
2018-06-10T02:12:37.323Z,0
2018-06-10T02:13:38.478Z,0
2018-06-10T02:14:39.172Z,0
2018-06-10T02:15:40.453Z,0
2018-06-10T02:16:41.448Z,1
2018-06-10T02:17:42.179Z,1
2018-06-10T02:18:43.466Z,1
2018-06-10T02:19:44.454Z,0
2018-06-10T02:20:45.175Z,0
2018-06-10T02:21:46.466Z,0
2018-06-10T02:22:47.462Z,0
2018-06-10T02:23:48.444Z,0
2018-06-10T02:24:49.481Z,0
2018-06-10T02:25:49.876Z,0
2018-06-10T02:26:51.450Z,0
2018-06-10T02:27:52.158Z,0
2018-06-10T02:28:53.167Z,0
2018-06-10T02:29:54.436Z,0
2018-06-10T02:30:55.449Z,1
2018-06-10T02:31:56.158Z,0
2018-06-10T02:32:57.453Z,0
2018-06-10T02:33:58.162Z,0
2018-06-10T02:34:59.443Z,0
2018-06-10T02:36:00.498Z,0
2018-06-10T02:37:01.256Z,0
2018-06-10T02:38:02.444Z,1
2018-06-10T02:39:03.448Z,1
2018-06-10T02:40:04.456Z,0
2018-06-10T02:41:06.370Z,0
2018-06-10T02:42:07.369Z,1
2018-06-10T02:43:07.652Z,0
2018-06-10T02:44:08.147Z,0
2018-06-10T02:45:10.365Z,0
2018-06-10T02:46:10.140Z,0
2018-06-10T02:47:12.348Z,0
2018-06-10T02:48:12.523Z,0
2018-06-10T02:49:13.443Z,0
2018-06-10T02:50:15.380Z,0
2018-06-10T02:51:16.090Z,1
2018-06-10T02:52:16.432Z,0
2018-06-10T02:53:17.568Z,0
2018-06-10T02:54:19.359Z,0
2018-06-10T02:55:19.404Z,0
2018-06-10T02:56:20.134Z,0
2018-06-10T02:57:22.347Z,0
2018-06-10T02:58:22.771Z,0
2018-06-10T02:59:23.124Z,1
2018-06-10T03:00:24.122Z,1
2018-06-10T03:01:25.406Z,0
2018-06-10T03:02:26.417Z,0
2018-06-10T03:03:27.110Z,0
2018-06-10T03:04:28.415Z,0
2018-06-10T03:05:29.130Z,0
2018-06-10T03:06:30.406Z,0
2018-06-10T03:07:31.112Z,0
2018-06-10T03:08:32.276Z,0
2018-06-10T03:09:33.420Z,1
2018-06-10T03:10:34.408Z,1
2018-06-10T03:11:35.397Z,1
2018-06-10T03:12:36.406Z,0
2018-06-10T03:13:37.411Z,0
2018-06-10T03:14:38.425Z,1
2018-06-10T03:15:39.128Z,0
2018-06-10T03:16:40.403Z,0
2018-06-10T03:17:41.405Z,1
2018-06-10T03:18:42.547Z,0
2018-06-10T03:19:43.404Z,0
2018-06-10T03:20:44.097Z,0
2018-06-10T03:21:44.804Z,1
2018-06-10T03:22:46.386Z,0
2018-06-10T03:23:47.738Z,0
2018-06-10T03:24:48.376Z,0
2018-06-10T03:25:49.086Z,0
2018-06-10T03:26:50.117Z,0
2018-06-10T03:27:51.397Z,0
2018-06-10T03:28:52.409Z,0
2018-06-10T03:29:53.400Z,1
2018-06-10T03:30:54.425Z,0
2018-06-10T03:31:55.089Z,0
2018-06-10T03:32:56.371Z,0
2018-06-10T03:33:58.115Z,1
2018-06-10T03:34:58.362Z,1
2018-06-10T03:35:59.075Z,0
2018-06-10T03:37:00.361Z,1
2018-06-10T03:38:01.088Z,0
2018-06-10T03:39:02.366Z,0
2018-06-10T03:40:03.076Z,1
2018-06-10T03:41:04.361Z,0
2018-06-10T03:42:05.082Z,1
2018-06-10T03:43:06.357Z,0
2018-06-10T03:44:07.362Z,0
2018-06-10T03:45:08.368Z,0
2018-06-10T03:46:09.071Z,0
2018-06-10T03:47:10.351Z,1
2018-06-10T03:48:11.069Z,0
2018-06-10T03:49:12.358Z,0
2018-06-10T03:50:13.363Z,1
2018-06-10T03:51:14.346Z,0
2018-06-10T03:52:15.344Z,0
2018-06-10T03:53:16.371Z,0
2018-06-10T03:54:16.922Z,1
2018-06-10T03:55:18.362Z,0
2018-06-10T03:56:19.350Z,0
2018-06-10T03:57:20.061Z,0
2018-06-10T03:58:21.346Z,0
2018-06-10T03:59:22.341Z,1
2018-06-10T04:00:23.337Z,1
2018-06-10T04:01:24.348Z,0
2018-06-10T04:02:25.052Z,0
2018-06-10T04:03:26.050Z,0
2018-06-10T04:04:28.430Z,0
2018-06-10T04:05:28.357Z,0
2018-06-10T04:06:29.342Z,0
2018-06-10T04:07:30.062Z,1
2018-06-10T04:08:31.332Z,1
2018-06-10T04:09:32.338Z,0
2018-06-10T04:10:32.755Z,1
2018-06-10T04:11:34.033Z,0
2018-06-10T04:12:35.365Z,1
2018-06-10T04:13:36.332Z,0
2018-06-10T04:14:37.428Z,0
2018-06-10T04:15:38.326Z,0
2018-06-10T04:16:39.310Z,1
2018-06-10T04:17:40.343Z,0
2018-06-10T04:18:41.316Z,0
2018-06-10T04:19:42.105Z,0
2018-06-10T04:20:43.027Z,0
2018-06-10T04:21:44.022Z,0
2018-06-10T04:22:45.324Z,0
2018-06-10T04:23:46.312Z,0
2018-06-10T04:24:47.463Z,1
2018-06-10T04:25:48.313Z,0
2018-06-10T04:26:49.315Z,1
2018-06-10T04:27:50.979Z,0
2018-06-10T04:28:51.967Z,0
2018-06-10T04:29:52.336Z,0
2018-06-10T04:30:53.333Z,0
2018-06-10T04:31:53.731Z,0
2018-06-10T04:32:55.289Z,1
2018-06-10T04:33:56.306Z,0
2018-06-10T04:34:57.447Z,1
2018-06-10T04:35:58.291Z,0
2018-06-10T04:36:59.015Z,0
2018-06-10T04:38:00.032Z,0
2018-06-10T04:39:01.306Z,0
2018-06-10T04:40:02.318Z,0
2018-06-10T04:41:03.299Z,0
2018-06-10T04:42:04.008Z,0
2018-06-10T04:43:05.012Z,1
2018-06-10T04:44:06.297Z,0
2018-06-10T04:45:07.643Z,0
2018-06-10T04:46:08.289Z,0
2018-06-10T04:47:09.542Z,1
2018-06-10T04:48:09.992Z,0
2018-06-10T04:49:11.292Z,1
2018-06-10T04:50:12.389Z,0
2018-06-10T04:51:13.275Z,0
2018-06-10T04:52:14.271Z,0
2018-06-10T04:53:15.012Z,1
2018-06-10T04:54:16.275Z,0
2018-06-10T04:55:17.275Z,1
2018-06-10T04:56:18.270Z,0
2018-06-10T04:57:19.320Z,0
2018-06-10T04:58:20.284Z,0
2018-06-10T04:59:20.692Z,0
2018-06-10T05:00:22.630Z,0
2018-06-10T05:01:23.291Z,0
2018-06-10T05:02:24.270Z,0
2018-06-10T05:03:25.270Z,0
2018-06-10T05:04:26.264Z,0
2018-06-10T05:05:26.999Z,0
2018-06-10T05:06:28.262Z,0
2018-06-10T05:07:29.010Z,0
2018-06-10T05:08:30.281Z,0
2018-06-10T05:09:30.977Z,1
2018-06-10T05:10:31.694Z,0
2018-06-10T05:11:32.968Z,0
2018-06-10T05:12:33.963Z,0
2018-06-10T05:13:35.272Z,1
2018-06-10T05:14:36.261Z,0
2018-06-10T05:15:37.624Z,0
2018-06-10T05:16:38.288Z,0
2018-06-10T05:17:39.242Z,0
2018-06-10T05:18:40.252Z,0
2018-06-10T05:19:41.768Z,0
2018-06-10T05:20:42.252Z,0
2018-06-10T05:21:42.962Z,1
2018-06-10T05:22:43.966Z,0
2018-06-10T05:23:45.283Z,0
2018-06-10T05:24:46.249Z,0
2018-06-10T05:25:47.421Z,0
2018-06-10T05:26:48.248Z,1
2018-06-10T05:27:49.235Z,0
2018-06-10T05:28:50.246Z,0
2018-06-10T05:29:51.251Z,1
2018-06-10T05:30:52.231Z,0
2018-06-10T05:31:53.234Z,0
2018-06-10T05:32:54.246Z,0
2018-06-10T05:33:55.236Z,1
2018-06-10T05:34:56.266Z,1
2018-06-10T05:35:57.107Z,0
2018-06-10T05:36:58.226Z,1
2018-06-10T05:37:58.941Z,1
2018-06-10T05:39:00.257Z,1
2018-06-10T05:40:01.291Z,0
2018-06-10T05:41:02.235Z,0
2018-06-10T05:42:03.235Z,0
2018-06-10T05:43:03.942Z,1
2018-06-10T05:44:04.935Z,0
2018-06-10T05:45:06.224Z,1
2018-06-10T05:46:07.330Z,0
2018-06-10T05:47:08.236Z,0
2018-06-10T05:48:08.941Z,1
2018-06-10T05:49:09.943Z,0
2018-06-10T05:50:11.240Z,0
2018-06-10T05:51:12.365Z,0
2018-06-10T05:52:13.287Z,1
2018-06-10T05:53:14.242Z,0
2018-06-10T05:54:15.219Z,0
2018-06-10T05:55:16.232Z,1
2018-06-10T05:56:16.934Z,0
2018-06-10T05:57:18.205Z,1
2018-06-10T05:58:19.223Z,0
2018-06-10T05:59:20.217Z,0
2018-06-10T06:00:20.929Z,1
2018-06-10T06:01:22.202Z,1
2018-06-10T06:02:22.641Z,0
2018-06-10T06:03:24.265Z,1
2018-06-10T06:04:24.925Z,0
2018-06-10T06:05:26.203Z,1
2018-06-10T06:06:26.939Z,0
2018-06-10T06:07:28.192Z,1
2018-06-10T06:08:29.233Z,0
2018-06-10T06:09:30.201Z,1
2018-06-10T06:10:30.973Z,1
2018-06-10T06:11:31.920Z,0
2018-06-10T06:12:33.183Z,0
2018-06-10T06:13:34.206Z,0
2018-06-10T06:14:35.195Z,0
2018-06-10T06:15:36.208Z,1
2018-06-10T06:16:37.053Z,0
2018-06-10T06:17:38.211Z,0
2018-06-10T06:18:39.199Z,0
2018-06-10T06:19:40.186Z,0
2018-06-10T06:20:40.918Z,0
2018-06-10T06:21:42.177Z,0
2018-06-10T06:22:43.189Z,0
2018-06-10T06:23:44.199Z,0
2018-06-10T06:24:44.906Z,1
2018-06-10T06:25:46.196Z,0
2018-06-10T06:26:47.095Z,1
2018-06-10T06:27:48.191Z,1
2018-06-10T06:28:48.890Z,1
2018-06-10T06:29:50.198Z,1
2018-06-10T06:30:52.097Z,0
2018-06-10T06:31:52.530Z,0
2018-06-10T06:32:52.903Z,0
2018-06-10T06:33:55.115Z,0
2018-06-10T06:34:54.876Z,0
2018-06-10T06:35:55.879Z,1
2018-06-10T06:36:57.025Z,0
2018-06-10T06:37:58.160Z,0
2018-06-10T06:38:58.875Z,0
2018-06-10T06:40:01.107Z,1
2018-06-10T06:41:01.157Z,0
2018-06-10T06:42:02.514Z,0
2018-06-10T06:43:02.871Z,0
2018-06-10T06:44:03.873Z,0
2018-06-10T06:45:05.155Z,0
2018-06-10T06:46:06.162Z,0
2018-06-10T06:47:07.110Z,0
2018-06-10T06:48:08.154Z,1
2018-06-10T06:49:09.193Z,0
2018-06-10T06:50:09.874Z,1
2018-06-10T06:51:12.116Z,1
2018-06-10T06:52:12.039Z,1
2018-06-10T06:53:13.182Z,0
2018-06-10T06:54:14.135Z,0
2018-06-10T06:55:15.145Z,0
2018-06-10T06:56:15.880Z,0
2018-06-10T06:57:16.978Z,0
2018-06-10T06:58:18.181Z,0
2018-06-10T06:59:19.158Z,0
2018-06-10T07:00:20.147Z,0
2018-06-10T07:01:21.149Z,1
2018-06-10T07:02:22.293Z,0
2018-06-10T07:03:22.865Z,0
2018-06-10T07:04:23.876Z,1
2018-06-10T07:05:24.863Z,0
2018-06-10T07:06:25.881Z,0
2018-06-10T07:07:27.235Z,0
2018-06-10T07:08:27.882Z,0
2018-06-10T07:09:29.132Z,0
2018-06-10T07:10:30.137Z,0
2018-06-10T07:11:31.137Z,1
2018-06-10T07:12:32.336Z,0
2018-06-10T07:13:33.139Z,0
2018-06-10T07:14:33.869Z,1
2018-06-10T07:15:35.150Z,0
2018-06-10T07:16:35.889Z,0
2018-06-10T07:17:37.193Z,1
2018-06-10T07:18:38.123Z,0
2018-06-10T07:19:38.860Z,0
2018-06-10T07:20:40.136Z,0
2018-06-10T07:21:41.129Z,1
2018-06-10T07:22:42.477Z,0
2018-06-10T07:23:42.974Z,0
2018-06-10T07:24:44.139Z,0
2018-06-10T07:25:45.143Z,0
2018-06-10T07:26:45.835Z,0
2018-06-10T07:27:47.170Z,0
2018-06-10T07:28:48.178Z,0
2018-06-10T07:29:49.112Z,0
2018-06-10T07:30:50.145Z,1
2018-06-10T07:31:51.116Z,0
2018-06-10T07:32:51.839Z,0
2018-06-10T07:33:53.136Z,0
2018-06-10T07:34:53.835Z,0
2018-06-10T07:35:54.833Z,1
2018-06-10T07:36:55.842Z,1
2018-06-10T07:37:56.820Z,0
2018-06-10T07:38:57.814Z,0
2018-06-10T07:39:59.151Z,0
2018-06-10T07:41:00.107Z,1
2018-06-10T07:42:01.132Z,0
2018-06-10T07:43:02.470Z,1
2018-06-10T07:44:03.098Z,0
2018-06-10T07:45:03.817Z,0
2018-06-10T07:46:05.109Z,0
2018-06-10T07:47:05.523Z,0
2018-06-10T07:48:07.107Z,0
2018-06-10T07:49:08.141Z,0
2018-06-10T07:50:09.091Z,1
2018-06-10T07:51:10.091Z,1
2018-06-10T07:52:10.532Z,0
2018-06-10T07:53:11.951Z,0
2018-06-10T07:54:13.099Z,0
2018-06-10T07:55:14.109Z,0
2018-06-10T07:56:15.087Z,0
2018-06-10T08:15:34.277Z,287
2018-06-10T08:16:35.233Z,283
2018-06-10T08:17:36.196Z,285
2018-06-10T08:20:20.166Z,282
2018-06-10T08:21:21.079Z,277
2018-06-10T08:22:21.778Z,275
2018-06-10T08:23:23.088Z,270
2018-06-10T08:50:55.961Z,257
2018-06-10T08:51:45.962Z,258
2018-06-10T08:52:46.693Z,257
2018-06-10T08:53:47.411Z,256
2018-06-10T08:54:48.404Z,257
2018-06-10T08:55:49.675Z,252
2018-06-10T08:56:50.452Z,256
2018-06-10T08:57:51.665Z,253
2018-06-10T08:58:52.662Z,252
2018-06-10T08:59:53.415Z,254
2018-06-10T09:00:54.663Z,256
2018-06-10T09:01:55.404Z,255
2018-06-10T09:02:57.814Z,256
2018-06-10T09:03:57.382Z,253
2018-06-10T09:04:58.669Z,253
2018-06-10T09:05:59.658Z,251
2018-06-10T09:07:00.670Z,252
2018-06-10T09:08:01.655Z,255
2018-06-10T09:09:02.642Z,252
2018-06-10T09:10:03.660Z,254
2018-06-10T09:11:04.383Z,253
2018-06-10T09:12:05.645Z,254
2018-06-10T09:13:06.388Z,254
2018-06-10T09:14:07.643Z,256
2018-06-10T09:15:08.753Z,253
2018-06-10T09:16:09.108Z,253
2018-06-10T09:17:10.373Z,253
2018-06-10T09:18:11.643Z,254
2018-06-10T09:19:12.635Z,254
2018-06-10T09:27:22.607Z,303
2018-06-10T09:28:23.519Z,295
2018-06-10T09:29:24.515Z,292
2018-06-10T09:30:25.530Z,289
2018-06-10T09:31:25.965Z,289
2018-06-10T09:32:27.660Z,288
2018-06-10T09:33:28.519Z,290
2018-06-10T09:34:29.505Z,287
2018-06-10T09:35:31.080Z,289
2018-06-10T09:36:31.508Z,287
2018-06-10T09:37:33.794Z,290
2018-06-10T09:38:33.277Z,289
2018-06-10T09:39:34.520Z,290
2018-06-10T09:40:35.218Z,291
2018-06-10T09:41:36.503Z,291
2018-06-10T09:42:37.500Z,293
2018-06-10T09:43:38.254Z,291
2018-06-10T09:44:39.494Z,291
2018-06-10T09:45:40.497Z,290
2018-06-10T09:46:41.512Z,290
2018-06-10T09:47:42.490Z,292
2018-06-10T09:48:43.497Z,291
2018-06-10T09:49:44.234Z,290
2018-06-10T09:50:45.500Z,291
2018-06-10T09:51:46.492Z,290
2018-06-10T09:52:47.658Z,290
2018-06-10T09:53:48.490Z,291
2018-06-10T09:54:49.217Z,290
2018-06-10T09:55:50.508Z,292
2018-06-10T09:56:51.542Z,293
2018-06-10T09:57:52.492Z,290
2018-06-10T09:58:53.478Z,293
2018-06-10T09:59:54.487Z,293
2018-06-10T10:00:55.493Z,290
2018-06-10T10:01:56.234Z,290
2018-06-10T10:02:57.415Z,292
2018-06-10T10:03:58.208Z,293
2018-06-10T10:04:59.474Z,293
2018-06-10T10:06:00.484Z,293
2018-06-10T10:07:01.202Z,293
2018-06-10T10:08:02.466Z,293
2018-06-10T10:09:03.476Z,294
2018-06-10T10:10:04.469Z,293
2018-06-10T10:11:05.474Z,293
2018-06-10T10:12:06.464Z,292
2018-06-10T10:13:07.294Z,293
2018-06-10T10:14:08.469Z,292
2018-06-10T10:15:09.205Z,290
2018-06-10T10:16:10.480Z,295
2018-06-10T10:17:11.479Z,293
2018-06-10T10:18:12.206Z,294
2018-06-10T10:19:13.469Z,293
2018-06-10T10:20:14.454Z,293
2018-06-10T10:21:15.189Z,294
2018-06-10T10:22:16.177Z,293
2018-06-10T10:23:17.487Z,293
2018-06-10T10:24:18.446Z,294
2018-06-10T10:25:19.454Z,291
2018-06-10T10:26:20.450Z,291
2018-06-10T10:27:21.450Z,293
2018-06-10T10:28:22.447Z,295
2018-06-10T10:29:23.451Z,293
2018-06-10T10:30:24.202Z,291
2018-06-10T10:31:25.448Z,295
2018-06-10T10:32:26.458Z,293
2018-06-10T10:33:27.454Z,292
2018-06-10T10:34:28.172Z,292
2018-06-10T10:35:29.473Z,292
2018-06-10T10:36:30.450Z,292
2018-06-10T10:37:31.429Z,292
2018-06-10T10:38:32.838Z,295
2018-06-10T10:39:33.163Z,295
2018-06-10T10:40:34.158Z,291
2018-06-10T10:41:36.366Z,293
2018-06-10T10:42:36.158Z,294
2018-06-10T10:43:37.647Z,293
2018-06-10T10:44:38.179Z,293
2018-06-10T10:45:39.427Z,295
2018-06-10T10:46:40.433Z,293
2018-06-10T10:47:41.412Z,293
2018-06-10T10:48:42.433Z,293
2018-06-10T10:49:43.436Z,292
2018-06-10T10:50:44.410Z,295
2018-06-10T10:51:45.402Z,293
2018-06-10T10:52:46.144Z,293
2018-06-10T10:53:47.417Z,296
2018-06-10T10:54:48.413Z,296
2018-06-10T10:55:49.418Z,297
2018-06-10T10:56:50.417Z,293
2018-06-10T10:57:51.416Z,295
2018-06-10T10:58:52.500Z,295
2018-06-10T10:59:53.446Z,295
2018-06-10T11:00:54.128Z,296
2018-06-10T11:01:55.603Z,295
2018-06-10T11:02:56.118Z,296
2018-06-10T11:03:57.540Z,296
2018-06-10T11:04:58.115Z,294
2018-06-10T11:05:59.390Z,293
2018-06-10T11:07:00.469Z,297
2018-06-10T11:08:01.396Z,295
2018-06-10T11:09:02.079Z,295
2018-06-10T11:10:04.338Z,291
2018-06-10T11:11:04.382Z,293
2018-06-10T11:12:05.135Z,296
2018-06-10T11:13:07.324Z,296
2018-06-10T11:14:07.405Z,293
2018-06-10T11:15:08.412Z,292
2018-06-10T11:16:10.332Z,296
2018-06-10T11:17:10.426Z,290
2018-06-10T11:18:11.382Z,296
2018-06-10T11:19:12.269Z,295
2018-06-10T11:20:13.389Z,296
2018-06-10T11:21:14.378Z,291
2018-06-10T11:22:15.372Z,293
2018-06-10T11:23:16.395Z,296
2018-06-10T11:24:17.736Z,294
2018-06-10T11:25:18.100Z,297
2018-06-10T11:26:19.109Z,295
2018-06-10T11:27:20.633Z,297
2018-06-10T11:28:21.101Z,293
2018-06-10T11:29:22.484Z,296
2018-06-10T11:30:23.363Z,294
2018-06-10T11:31:24.384Z,295
2018-06-10T11:32:24.812Z,293
2018-06-10T11:33:26.352Z,296
2018-06-10T11:34:27.400Z,293
2018-06-10T11:35:28.091Z,294
2018-06-10T11:36:29.085Z,295
2018-06-10T11:37:29.817Z,295
2018-06-10T11:38:31.415Z,291
2018-06-10T11:39:32.095Z,294
2018-06-10T11:40:33.346Z,295
2018-06-10T11:41:34.345Z,296
2018-06-10T11:42:35.949Z,294
2018-06-10T11:43:36.366Z,294
2018-06-10T11:44:37.453Z,294
2018-06-10T11:45:38.340Z,294
2018-06-10T11:46:39.352Z,294
2018-06-10T11:47:40.410Z,297
2018-06-10T11:48:41.077Z,296
2018-06-10T11:49:42.503Z,295
2018-06-10T11:50:43.115Z,294
2018-06-10T11:51:44.368Z,293
2018-06-10T11:52:45.348Z,296
2018-06-10T11:53:46.349Z,297
2018-06-10T11:54:47.486Z,294
2018-06-10T11:55:48.342Z,295
2018-06-10T11:56:49.341Z,294
2018-06-10T11:57:50.411Z,294
2018-06-10T11:58:51.373Z,297
2018-06-10T11:59:52.449Z,295
2018-06-10T12:00:53.342Z,295
2018-06-10T12:01:54.178Z,296
2018-06-10T12:02:55.077Z,294
2018-06-10T12:03:56.332Z,294
2018-06-10T12:04:57.319Z,295
2018-06-10T12:05:58.332Z,297
2018-06-10T12:06:59.060Z,294
2018-06-10T12:08:01.128Z,297
2018-06-10T12:09:01.345Z,294
2018-06-10T12:10:01.930Z,292
2018-06-10T12:11:03.335Z,293
2018-06-10T12:12:04.316Z,296
2018-06-10T12:13:05.033Z,296
2018-06-10T12:14:06.366Z,294
2018-06-10T12:15:07.361Z,296
2018-06-10T12:16:08.045Z,294
2018-06-10T12:17:09.329Z,295
2018-06-10T12:18:10.303Z,295
2018-06-10T12:19:11.059Z,297
2018-06-10T12:20:12.506Z,295
2018-06-10T12:21:13.308Z,294
2018-06-10T12:22:14.316Z,294
2018-06-10T12:23:15.305Z,292
2018-06-10T12:24:16.294Z,295
2018-06-10T12:25:17.327Z,295
2018-06-10T12:26:18.308Z,294
2018-06-10T12:27:19.313Z,293
2018-06-10T12:28:20.302Z,296
2018-06-10T12:29:21.236Z,297
2018-06-10T12:30:22.309Z,295
2018-06-10T12:31:23.027Z,291
2018-06-10T12:32:24.118Z,295
2018-06-10T12:33:25.292Z,295
2018-06-10T12:34:26.294Z,295
2018-06-10T12:35:27.122Z,296
2018-06-10T12:36:28.023Z,297
2018-06-10T12:37:29.305Z,295
2018-06-10T12:38:30.030Z,293
2018-06-10T12:39:31.020Z,291
2018-06-10T12:40:32.380Z,294
2018-06-10T12:41:34.424Z,297
2018-06-10T12:42:34.020Z,294
2018-06-10T12:43:35.290Z,296
2018-06-10T12:44:36.945Z,295
2018-06-10T12:45:37.060Z,294
2018-06-10T12:46:38.279Z,297
2018-06-10T12:47:39.290Z,297
2018-06-10T12:48:40.012Z,294
2018-06-10T12:49:41.058Z,294
2018-06-10T12:50:42.426Z,295
2018-06-10T12:51:43.272Z,296
2018-06-10T12:52:44.284Z,295
2018-06-10T12:53:45.300Z,297
2018-06-10T12:54:46.291Z,294
2018-06-10T12:55:46.812Z,294
2018-06-10T12:56:48.290Z,295
2018-06-10T12:57:49.273Z,291
2018-06-10T12:58:49.726Z,296
2018-06-10T12:59:51.254Z,296
2018-06-10T13:00:52.426Z,297
2018-06-10T13:01:52.993Z,294
2018-06-10T13:02:54.265Z,294
2018-06-10T13:03:54.990Z,295
2018-06-10T13:04:56.271Z,294
2018-06-10T13:05:57.414Z,294
2018-06-10T13:06:58.245Z,296
2018-06-10T13:07:59.241Z,296
2018-06-10T13:09:00.266Z,295
2018-06-10T13:10:00.989Z,294
2018-06-10T13:11:01.973Z,297
2018-06-10T13:12:02.991Z,295
2018-06-10T13:13:04.232Z,294
2018-06-10T13:14:04.985Z,294
2018-06-10T13:15:05.995Z,294
2018-06-10T13:16:07.247Z,297
2018-06-10T13:17:08.275Z,297
2018-06-10T13:18:09.263Z,294
2018-06-10T13:19:10.245Z,300
2018-06-10T13:20:10.974Z,297
2018-06-10T13:21:12.576Z,297
2018-06-10T13:22:13.262Z,295
2018-06-10T13:23:13.725Z,295
2018-06-10T13:24:15.271Z,296
2018-06-10T13:25:15.958Z,295
2018-06-10T13:26:17.228Z,297
2018-06-10T13:27:18.235Z,297
2018-06-10T13:28:18.983Z,294
2018-06-10T13:29:20.227Z,297
2018-06-10T13:30:21.231Z,294
2018-06-10T13:31:22.380Z,294
2018-06-10T13:32:22.963Z,294
2018-06-10T13:33:24.215Z,294
2018-06-10T13:34:25.243Z,296
2018-06-10T13:35:26.219Z,294
2018-06-10T13:36:27.236Z,296
2018-06-10T13:37:27.955Z,295
2018-06-10T13:38:29.224Z,294
2018-06-10T13:39:30.224Z,295
2018-06-10T13:40:31.130Z,295
2018-06-10T13:41:32.376Z,300
2018-06-10T13:42:33.203Z,298
2018-06-10T13:43:34.223Z,296
2018-06-10T13:44:35.206Z,295
2018-06-10T13:45:35.937Z,295
2018-06-10T13:46:37.208Z,295
2018-06-10T13:47:37.951Z,295
2018-06-10T13:48:39.215Z,298
2018-06-10T13:49:40.223Z,295
2018-06-10T13:50:41.194Z,298
2018-06-10T13:51:41.933Z,293
2018-06-10T13:52:43.209Z,294
2018-06-10T13:53:43.938Z,297
2018-06-10T13:54:45.197Z,297
2018-06-10T13:55:46.205Z,297
2018-06-10T13:56:47.189Z,295
2018-06-10T13:57:47.943Z,296
2018-06-10T13:58:49.210Z,296
2018-06-10T13:59:50.205Z,294
2018-06-10T14:00:51.210Z,297
2018-06-10T14:01:52.551Z,294
2018-06-10T14:02:52.919Z,298
2018-06-10T14:03:54.204Z,296
2018-06-10T14:04:55.192Z,295
2018-06-10T14:05:55.948Z,297
2018-06-10T14:06:57.196Z,296
2018-06-10T14:07:57.917Z,294
2018-06-10T14:08:59.197Z,294
2018-06-10T14:10:00.498Z,296
2018-06-10T14:11:01.181Z,296
2018-06-10T14:12:02.383Z,294
2018-06-10T14:13:03.195Z,296
2018-06-10T14:14:04.166Z,297
2018-06-10T14:15:04.675Z,296
2018-06-10T14:16:06.175Z,295
2018-06-10T14:17:07.189Z,298
2018-06-10T14:18:08.170Z,297
2018-06-10T14:19:09.168Z,297
2018-06-10T14:20:10.191Z,294
2018-06-10T14:21:10.893Z,296
2018-06-10T14:22:12.193Z,294
2018-06-10T14:23:12.892Z,297
2018-06-10T14:24:14.177Z,295
2018-06-10T14:25:14.883Z,295
2018-06-10T14:26:16.195Z,296
2018-06-10T14:27:17.325Z,296
2018-06-10T14:28:18.164Z,296
2018-06-10T14:29:19.159Z,297
2018-06-10T14:30:20.431Z,294
2018-06-10T14:31:20.898Z,298
2018-06-10T14:32:22.164Z,296
2018-06-10T14:33:23.156Z,296
2018-06-10T14:34:25.081Z,296
2018-06-10T14:35:25.153Z,295
2018-06-10T14:36:25.892Z,298
2018-06-10T14:37:27.303Z,297
2018-06-10T14:38:28.156Z,297
2018-06-10T14:39:28.874Z,298
2018-06-10T14:40:29.875Z,296
2018-06-10T14:41:31.143Z,298
2018-06-10T14:42:32.278Z,295
2018-06-10T14:43:33.133Z,294
2018-06-10T14:44:34.177Z,297
2018-06-10T14:45:35.135Z,298
2018-06-10T14:46:36.137Z,294
2018-06-10T14:47:36.688Z,294
2018-06-10T14:48:38.136Z,296
2018-06-10T14:49:38.948Z,294
2018-06-10T14:50:40.150Z,297
2018-06-10T14:51:41.145Z,296
2018-06-10T14:52:42.303Z,294
2018-06-10T14:53:43.130Z,296
2018-06-10T14:54:44.135Z,296
2018-06-10T14:55:45.145Z,297
2018-06-10T14:56:46.107Z,295
2018-06-10T14:57:47.219Z,296
2018-06-10T14:58:48.144Z,297
2018-06-10T14:59:49.124Z,295
2018-06-10T15:00:49.840Z,299
2018-06-10T15:01:51.125Z,294
2018-06-10T15:02:52.120Z,297
2018-06-10T15:03:52.868Z,297
2018-06-10T15:04:53.305Z,294
2018-06-10T15:05:55.280Z,298
2018-06-10T15:06:55.856Z,297
2018-06-10T15:07:56.583Z,297
2018-06-10T15:08:58.495Z,297
2018-06-10T15:09:58.590Z,295
2018-06-10T15:10:59.885Z,295
2018-06-10T15:12:01.334Z,296
2018-06-10T15:13:01.849Z,293
2018-06-10T15:14:02.316Z,294
2018-06-10T15:15:03.576Z,295
2018-06-10T15:16:04.318Z,291
2018-06-10T15:17:05.866Z,297
2018-06-10T15:18:06.289Z,294
2018-06-10T15:19:07.295Z,295
2018-06-10T15:20:08.907Z,291
2018-06-10T15:21:11.048Z,295
2018-06-10T15:22:11.106Z,294
2018-06-10T15:23:12.240Z,293
2018-06-10T15:24:13.095Z,294
2018-06-10T15:25:13.820Z,295
2018-06-10T15:26:14.821Z,294